sensor_id;sensor_type;location;lat;lon;timestamp;P1;durP1;ratioP1;P2;durP2;ratioP2
37091;SDS011;23005;51.998;4.502;2023-04-25T00:00:56;26.98;;;5.38;;
37091;SDS011;23005;51.998;4.502;2023-04-25T00:02:17;31.10;;;6.78;;
37091;SDS011;23005;51.998;4.502;2023-04-25T00:03:38;30.67;;;5.30;;
37091;SDS011;23005;51.998;4.502;2023-04-25T00:04:59;33.13;;;5.78;;
37091;SDS011;23005;51.998;4.502;2023-04-25T00:06:20;28.65;;;5.85;;
37091;SDS011;23005;51.998;4.502;2023-04-25T00:07:41;32.35;;;5.68;;
37091;SDS011;23005;51.998;4.502;2023-04-25T00:09:04;28.90;;;5.88;;
37091;SDS011;23005;51.998;4.502;2023-04-25T00:10:25;35.28;;;5.80;;
37091;SDS011;23005;51.998;4.502;2023-04-25T00:11:46;33.58;;;5.35;;
37091;SDS011;23005;51.998;4.502;2023-04-25T00:13:07;28.50;;;5.05;;
37091;SDS011;23005;51.998;4.502;2023-04-25T00:14:28;37.63;;;5.55;;
37091;SDS011;23005;51.998;4.502;2023-04-25T00:15:49;35.88;;;5.65;;
37091;SDS011;23005;51.998;4.502;2023-04-25T00:17:10;29.67;;;5.30;;
37091;SDS011;23005;51.998;4.502;2023-04-25T00:18:30;32.90;;;5.25;;
37091;SDS011;23005;51.998;4.502;2023-04-25T00:19:51;29.17;;;5.13;;
37091;SDS011;23005;51.998;4.502;2023-04-25T00:21:12;34.08;;;5.72;;
37091;SDS011;23005;51.998;4.502;2023-04-25T00:22:33;25.73;;;5.22;;
37091;SDS011;23005;51.998;4.502;2023-04-25T00:23:54;21.58;;;4.68;;
37091;SDS011;23005;51.998;4.502;2023-04-25T00:25:17;23.38;;;4.63;;
37091;SDS011;23005;51.998;4.502;2023-04-25T00:26:38;28.40;;;4.80;;
37091;SDS011;23005;51.998;4.502;2023-04-25T00:27:59;26.80;;;5.00;;
37091;SDS011;23005;51.998;4.502;2023-04-25T00:29:19;34.05;;;5.20;;
37091;SDS011;23005;51.998;4.502;2023-04-25T00:30:41;25.73;;;5.07;;
37091;SDS011;23005;51.998;4.502;2023-04-25T00:32:02;30.88;;;5.22;;
37091;SDS011;23005;51.998;4.502;2023-04-25T00:33:23;30.95;;;5.63;;
37091;SDS011;23005;51.998;4.502;2023-04-25T00:34:44;20.70;;;4.80;;
37091;SDS011;23005;51.998;4.502;2023-04-25T00:36:06;24.23;;;5.95;;
37091;SDS011;23005;51.998;4.502;2023-04-25T00:37:27;27.73;;;4.93;;
37091;SDS011;23005;51.998;4.502;2023-04-25T00:38:48;30.92;;;5.85;;
37091;SDS011;23005;51.998;4.502;2023-04-25T00:40:09;21.20;;;5.22;;
37091;SDS011;23005;51.998;4.502;2023-04-25T00:41:32;30.65;;;5.18;;
37091;SDS011;23005;51.998;4.502;2023-04-25T00:42:53;20.58;;;4.38;;
37091;SDS011;23005;51.998;4.502;2023-04-25T00:44:14;18.90;;;4.82;;
37091;SDS011;23005;51.998;4.502;2023-04-25T00:45:35;20.35;;;4.45;;
37091;SDS011;23005;51.998;4.502;2023-04-25T00:46:59;23.70;;;4.80;;
37091;SDS011;23005;51.998;4.502;2023-04-25T00:48:22;26.73;;;5.22;;
37091;SDS011;23005;51.998;4.502;2023-04-25T00:49:43;23.58;;;4.75;;
37091;SDS011;23005;51.998;4.502;2023-04-25T00:51:03;27.30;;;4.78;;
37091;SDS011;23005;51.998;4.502;2023-04-25T00:52:24;22.35;;;5.03;;
37091;SDS011;23005;51.998;4.502;2023-04-25T00:53:45;30.13;;;4.55;;
37091;SDS011;23005;51.998;4.502;2023-04-25T00:55:07;27.85;;;5.32;;
37091;SDS011;23005;51.998;4.502;2023-04-25T00:56:29;27.25;;;5.20;;
37091;SDS011;23005;51.998;4.502;2023-04-25T00:57:51;22.80;;;4.18;;
37091;SDS011;23005;51.998;4.502;2023-04-25T00:59:12;29.33;;;5.22;;
37091;SDS011;23005;51.998;4.502;2023-04-25T01:00:36;22.17;;;4.82;;
37091;SDS011;23005;51.998;4.502;2023-04-25T01:01:57;22.08;;;4.70;;
37091;SDS011;23005;51.998;4.502;2023-04-25T01:03:18;29.27;;;5.53;;
37091;SDS011;23005;51.998;4.502;2023-04-25T01:04:40;30.65;;;4.47;;
37091;SDS011;23005;51.998;4.502;2023-04-25T01:06:02;28.80;;;4.55;;
37091;SDS011;23005;51.998;4.502;2023-04-25T01:07:23;24.00;;;4.78;;
37091;SDS011;23005;51.998;4.502;2023-04-25T01:08:44;23.58;;;4.78;;
37091;SDS011;23005;51.998;4.502;2023-04-25T01:10:05;31.67;;;5.03;;
37091;SDS011;23005;51.998;4.502;2023-04-25T01:11:28;26.50;;;4.68;;
37091;SDS011;23005;51.998;4.502;2023-04-25T01:12:50;19.13;;;3.97;;
37091;SDS011;23005;51.998;4.502;2023-04-25T01:14:11;24.90;;;4.53;;
37091;SDS011;23005;51.998;4.502;2023-04-25T01:15:32;20.20;;;4.13;;
37091;SDS011;23005;51.998;4.502;2023-04-25T01:16:53;28.40;;;5.32;;
37091;SDS011;23005;51.998;4.502;2023-04-25T01:18:14;22.40;;;4.63;;
37091;SDS011;23005;51.998;4.502;2023-04-25T01:19:36;21.10;;;5.03;;
37091;SDS011;23005;51.998;4.502;2023-04-25T01:22:26;20.00;;;4.88;;
37091;SDS011;23005;51.998;4.502;2023-04-25T01:23:47;21.90;;;4.68;;
37091;SDS011;23005;51.998;4.502;2023-04-25T01:26:29;17.90;;;3.63;;
37091;SDS011;23005;51.998;4.502;2023-04-25T01:29:11;21.88;;;3.95;;
37091;SDS011;23005;51.998;4.502;2023-04-25T01:30:32;18.50;;;4.40;;
37091;SDS011;23005;51.998;4.502;2023-04-25T01:31:54;12.82;;;3.67;;
37091;SDS011;23005;51.998;4.502;2023-04-25T01:33:15;20.38;;;4.57;;
37091;SDS011;23005;51.998;4.502;2023-04-25T01:34:37;27.48;;;4.65;;
37091;SDS011;23005;51.998;4.502;2023-04-25T01:35:58;23.88;;;5.00;;
37091;SDS011;23005;51.998;4.502;2023-04-25T01:37:20;19.88;;;4.38;;
37091;SDS011;23005;51.998;4.502;2023-04-25T01:38:41;17.92;;;3.95;;
37091;SDS011;23005;51.998;4.502;2023-04-25T01:40:01;19.67;;;3.97;;
37091;SDS011;23005;51.998;4.502;2023-04-25T01:41:23;28.13;;;4.93;;
37091;SDS011;23005;51.998;4.502;2023-04-25T01:42:45;16.55;;;4.15;;
37091;SDS011;23005;51.998;4.502;2023-04-25T01:44:06;21.85;;;4.15;;
37091;SDS011;23005;51.998;4.502;2023-04-25T01:45:27;22.65;;;4.60;;
37091;SDS011;23005;51.998;4.502;2023-04-25T01:46:48;21.73;;;4.55;;
37091;SDS011;23005;51.998;4.502;2023-04-25T01:48:09;21.15;;;4.00;;
37091;SDS011;23005;51.998;4.502;2023-04-25T01:49:31;25.88;;;4.65;;
37091;SDS011;23005;51.998;4.502;2023-04-25T01:50:52;22.42;;;4.07;;
37091;SDS011;23005;51.998;4.502;2023-04-25T01:52:13;14.38;;;3.88;;
37091;SDS011;23005;51.998;4.502;2023-04-25T01:53:35;23.45;;;4.53;;
37091;SDS011;23005;51.998;4.502;2023-04-25T01:54:56;22.80;;;4.13;;
37091;SDS011;23005;51.998;4.502;2023-04-25T01:56:19;20.63;;;4.43;;
37091;SDS011;23005;51.998;4.502;2023-04-25T01:57:40;22.90;;;3.90;;
37091;SDS011;23005;51.998;4.502;2023-04-25T01:59:00;20.15;;;3.85;;
37091;SDS011;23005;51.998;4.502;2023-04-25T02:00:21;17.95;;;4.00;;
37091;SDS011;23005;51.998;4.502;2023-04-25T02:01:42;17.65;;;3.75;;
37091;SDS011;23005;51.998;4.502;2023-04-25T02:03:04;14.27;;;3.15;;
37091;SDS011;23005;51.998;4.502;2023-04-25T02:05:46;20.05;;;3.78;;
37091;SDS011;23005;51.998;4.502;2023-04-25T02:07:07;18.90;;;3.78;;
37091;SDS011;23005;51.998;4.502;2023-04-25T02:08:28;19.55;;;3.50;;
37091;SDS011;23005;51.998;4.502;2023-04-25T02:09:51;17.27;;;3.58;;
37091;SDS011;23005;51.998;4.502;2023-04-25T02:11:12;20.38;;;4.18;;
37091;SDS011;23005;51.998;4.502;2023-04-25T02:12:32;19.77;;;3.45;;
37091;SDS011;23005;51.998;4.502;2023-04-25T02:13:53;23.02;;;4.45;;
37091;SDS011;23005;51.998;4.502;2023-04-25T02:15:15;14.13;;;3.58;;
37091;SDS011;23005;51.998;4.502;2023-04-25T02:16:35;19.80;;;3.63;;
37091;SDS011;23005;51.998;4.502;2023-04-25T02:17:56;24.58;;;4.32;;
37091;SDS011;23005;51.998;4.502;2023-04-25T02:19:17;19.08;;;4.18;;
37091;SDS011;23005;51.998;4.502;2023-04-25T02:20:38;29.33;;;4.13;;
37091;SDS011;23005;51.998;4.502;2023-04-25T02:21:59;27.98;;;4.95;;
37091;SDS011;23005;51.998;4.502;2023-04-25T02:23:20;14.52;;;3.67;;
37091;SDS011;23005;51.998;4.502;2023-04-25T02:24:41;15.23;;;2.85;;
37091;SDS011;23005;51.998;4.502;2023-04-25T02:26:03;16.13;;;3.20;;
37091;SDS011;23005;51.998;4.502;2023-04-25T02:27:24;13.15;;;3.33;;
37091;SDS011;23005;51.998;4.502;2023-04-25T02:28:45;13.10;;;3.47;;
37091;SDS011;23005;51.998;4.502;2023-04-25T02:30:06;16.73;;;3.67;;
37091;SDS011;23005;51.998;4.502;2023-04-25T02:31:29;22.13;;;3.67;;
37091;SDS011;23005;51.998;4.502;2023-04-25T02:32:49;24.80;;;3.53;;
37091;SDS011;23005;51.998;4.502;2023-04-25T02:34:10;18.38;;;3.90;;
37091;SDS011;23005;51.998;4.502;2023-04-25T02:35:31;21.85;;;4.00;;
37091;SDS011;23005;51.998;4.502;2023-04-25T02:36:52;19.88;;;3.30;;
37091;SDS011;23005;51.998;4.502;2023-04-25T02:38:13;19.85;;;3.45;;
37091;SDS011;23005;51.998;4.502;2023-04-25T02:39:34;17.75;;;3.67;;
37091;SDS011;23005;51.998;4.502;2023-04-25T02:40:55;15.43;;;3.60;;
37091;SDS011;23005;51.998;4.502;2023-04-25T02:42:17;25.90;;;3.75;;
37091;SDS011;23005;51.998;4.502;2023-04-25T02:43:38;12.02;;;3.47;;
37091;SDS011;23005;51.998;4.502;2023-04-25T02:44:59;10.90;;;3.08;;
37091;SDS011;23005;51.998;4.502;2023-04-25T02:46:20;24.27;;;4.30;;
37091;SDS011;23005;51.998;4.502;2023-04-25T02:47:57;18.05;;;3.35;;
37091;SDS011;23005;51.998;4.502;2023-04-25T02:49:18;28.02;;;4.35;;
37091;SDS011;23005;51.998;4.502;2023-04-25T02:50:39;23.30;;;4.18;;
37091;SDS011;23005;51.998;4.502;2023-04-25T02:52:00;15.85;;;3.38;;
37091;SDS011;23005;51.998;4.502;2023-04-25T02:53:21;16.83;;;3.30;;
37091;SDS011;23005;51.998;4.502;2023-04-25T02:54:42;21.65;;;4.55;;
37091;SDS011;23005;51.998;4.502;2023-04-25T02:56:03;24.17;;;3.92;;
37091;SDS011;23005;51.998;4.502;2023-04-25T02:57:26;22.95;;;3.83;;
37091;SDS011;23005;51.998;4.502;2023-04-25T02:58:46;22.48;;;4.13;;
37091;SDS011;23005;51.998;4.502;2023-04-25T03:00:08;21.77;;;4.03;;
37091;SDS011;23005;51.998;4.502;2023-04-25T03:01:29;21.05;;;3.65;;
37091;SDS011;23005;51.998;4.502;2023-04-25T03:02:50;19.80;;;3.88;;
37091;SDS011;23005;51.998;4.502;2023-04-25T03:04:11;16.10;;;3.20;;
37091;SDS011;23005;51.998;4.502;2023-04-25T03:05:32;14.05;;;3.47;;
37091;SDS011;23005;51.998;4.502;2023-04-25T03:06:53;16.52;;;3.13;;
37091;SDS011;23005;51.998;4.502;2023-04-25T03:08:13;23.57;;;3.33;;
37091;SDS011;23005;51.998;4.502;2023-04-25T03:09:34;23.75;;;3.75;;
37091;SDS011;23005;51.998;4.502;2023-04-25T03:10:55;17.38;;;2.95;;
37091;SDS011;23005;51.998;4.502;2023-04-25T03:12:16;18.25;;;4.07;;
37091;SDS011;23005;51.998;4.502;2023-04-25T03:13:39;18.10;;;3.95;;
37091;SDS011;23005;51.998;4.502;2023-04-25T03:14:59;22.27;;;3.38;;
37091;SDS011;23005;51.998;4.502;2023-04-25T03:16:20;18.25;;;4.13;;
37091;SDS011;23005;51.998;4.502;2023-04-25T03:17:41;19.52;;;3.05;;
37091;SDS011;23005;51.998;4.502;2023-04-25T03:19:02;14.38;;;2.80;;
37091;SDS011;23005;51.998;4.502;2023-04-25T03:20:24;12.98;;;2.72;;
37091;SDS011;23005;51.998;4.502;2023-04-25T03:21:45;11.77;;;3.53;;
37091;SDS011;23005;51.998;4.502;2023-04-25T03:23:05;17.02;;;4.22;;
37091;SDS011;23005;51.998;4.502;2023-04-25T03:24:26;11.30;;;2.85;;
37091;SDS011;23005;51.998;4.502;2023-04-25T03:25:47;13.10;;;2.80;;
37091;SDS011;23005;51.998;4.502;2023-04-25T03:27:08;16.92;;;2.90;;
37091;SDS011;23005;51.998;4.502;2023-04-25T03:28:29;19.42;;;2.85;;
37091;SDS011;23005;51.998;4.502;2023-04-25T03:29:51;15.63;;;3.30;;
37091;SDS011;23005;51.998;4.502;2023-04-25T03:31:12;12.25;;;2.55;;
37091;SDS011;23005;51.998;4.502;2023-04-25T03:32:33;13.93;;;3.55;;
37091;SDS011;23005;51.998;4.502;2023-04-25T03:35:15;14.82;;;2.75;;
37091;SDS011;23005;51.998;4.502;2023-04-25T03:36:36;11.50;;;2.67;;
37091;SDS011;23005;51.998;4.502;2023-04-25T03:37:59;16.98;;;2.78;;
37091;SDS011;23005;51.998;4.502;2023-04-25T03:39:20;18.13;;;3.65;;
37091;SDS011;23005;51.998;4.502;2023-04-25T03:40:41;13.77;;;3.92;;
37091;SDS011;23005;51.998;4.502;2023-04-25T03:42:02;16.40;;;3.20;;
37091;SDS011;23005;51.998;4.502;2023-04-25T03:43:23;15.57;;;3.10;;
37091;SDS011;23005;51.998;4.502;2023-04-25T03:44:44;27.60;;;3.30;;
37091;SDS011;23005;51.998;4.502;2023-04-25T03:46:06;18.85;;;4.05;;
37091;SDS011;23005;51.998;4.502;2023-04-25T03:47:27;17.05;;;3.25;;
37091;SDS011;23005;51.998;4.502;2023-04-25T03:48:48;15.77;;;3.33;;
37091;SDS011;23005;51.998;4.502;2023-04-25T03:50:09;20.02;;;3.15;;
37091;SDS011;23005;51.998;4.502;2023-04-25T03:51:31;24.33;;;4.78;;
37091;SDS011;23005;51.998;4.502;2023-04-25T03:52:52;22.10;;;3.10;;
37091;SDS011;23005;51.998;4.502;2023-04-25T03:54:12;21.30;;;3.72;;
37091;SDS011;23005;51.998;4.502;2023-04-25T03:55:33;20.08;;;3.13;;
37091;SDS011;23005;51.998;4.502;2023-04-25T03:56:54;13.25;;;2.78;;
37091;SDS011;23005;51.998;4.502;2023-04-25T03:58:15;17.13;;;2.88;;
37091;SDS011;23005;51.998;4.502;2023-04-25T03:59:36;25.00;;;3.20;;
37091;SDS011;23005;51.998;4.502;2023-04-25T04:00:57;15.95;;;3.33;;
37091;SDS011;23005;51.998;4.502;2023-04-25T04:02:19;19.85;;;3.40;;
37091;SDS011;23005;51.998;4.502;2023-04-25T04:03:40;28.17;;;3.50;;
37091;SDS011;23005;51.998;4.502;2023-04-25T04:05:02;19.63;;;3.40;;
37091;SDS011;23005;51.998;4.502;2023-04-25T04:06:24;19.45;;;3.60;;
37091;SDS011;23005;51.998;4.502;2023-04-25T04:07:45;18.98;;;3.45;;
37091;SDS011;23005;51.998;4.502;2023-04-25T04:09:05;28.77;;;4.35;;
37091;SDS011;23005;51.998;4.502;2023-04-25T04:10:28;14.77;;;3.25;;
37091;SDS011;23005;51.998;4.502;2023-04-25T04:11:49;23.65;;;5.10;;
37091;SDS011;23005;51.998;4.502;2023-04-25T04:13:10;21.92;;;2.72;;
37091;SDS011;23005;51.998;4.502;2023-04-25T04:14:31;21.17;;;3.03;;
37091;SDS011;23005;51.998;4.502;2023-04-25T04:15:52;12.38;;;3.20;;
37091;SDS011;23005;51.998;4.502;2023-04-25T04:17:13;15.80;;;3.22;;
37091;SDS011;23005;51.998;4.502;2023-04-25T04:18:35;15.70;;;3.10;;
37091;SDS011;23005;51.998;4.502;2023-04-25T04:19:55;19.40;;;2.92;;
37091;SDS011;23005;51.998;4.502;2023-04-25T04:21:16;14.55;;;3.13;;
37091;SDS011;23005;51.998;4.502;2023-04-25T04:22:37;18.58;;;3.20;;
37091;SDS011;23005;51.998;4.502;2023-04-25T04:23:58;12.57;;;2.80;;
37091;SDS011;23005;51.998;4.502;2023-04-25T04:25:19;19.83;;;3.83;;
37091;SDS011;23005;51.998;4.502;2023-04-25T04:26:40;31.08;;;3.05;;
37091;SDS011;23005;51.998;4.502;2023-04-25T04:28:01;16.42;;;2.88;;
37091;SDS011;23005;51.998;4.502;2023-04-25T04:29:22;12.50;;;2.85;;
37091;SDS011;23005;51.998;4.502;2023-04-25T04:30:43;16.63;;;2.97;;
37091;SDS011;23005;51.998;4.502;2023-04-25T04:32:04;23.23;;;3.03;;
37091;SDS011;23005;51.998;4.502;2023-04-25T04:33:25;21.25;;;3.45;;
37091;SDS011;23005;51.998;4.502;2023-04-25T04:34:47;15.10;;;3.05;;
37091;SDS011;23005;51.998;4.502;2023-04-25T04:36:08;19.42;;;2.85;;
37091;SDS011;23005;51.998;4.502;2023-04-25T04:37:28;20.15;;;3.38;;
37091;SDS011;23005;51.998;4.502;2023-04-25T04:38:49;13.02;;;2.60;;
37091;SDS011;23005;51.998;4.502;2023-04-25T04:40:10;16.20;;;2.85;;
37091;SDS011;23005;51.998;4.502;2023-04-25T04:42:52;13.85;;;2.92;;
37091;SDS011;23005;51.998;4.502;2023-04-25T04:44:13;19.15;;;3.75;;
37091;SDS011;23005;51.998;4.502;2023-04-25T04:45:34;13.70;;;2.67;;
37091;SDS011;23005;51.998;4.502;2023-04-25T04:46:55;19.48;;;2.75;;
37091;SDS011;23005;51.998;4.502;2023-04-25T04:48:15;17.70;;;3.20;;
37091;SDS011;23005;51.998;4.502;2023-04-25T04:49:36;12.98;;;2.67;;
37091;SDS011;23005;51.998;4.502;2023-04-25T04:50:59;22.52;;;3.10;;
37091;SDS011;23005;51.998;4.502;2023-04-25T04:52:20;18.40;;;2.60;;
37091;SDS011;23005;51.998;4.502;2023-04-25T04:53:41;16.77;;;2.95;;
37091;SDS011;23005;51.998;4.502;2023-04-25T04:55:01;18.27;;;2.90;;
37091;SDS011;23005;51.998;4.502;2023-04-25T04:56:24;18.17;;;3.13;;
37091;SDS011;23005;51.998;4.502;2023-04-25T04:57:45;12.85;;;3.00;;
37091;SDS011;23005;51.998;4.502;2023-04-25T04:59:06;25.23;;;3.60;;
37091;SDS011;23005;51.998;4.502;2023-04-25T05:00:26;13.70;;;2.80;;
37091;SDS011;23005;51.998;4.502;2023-04-25T05:01:48;21.83;;;2.95;;
37091;SDS011;23005;51.998;4.502;2023-04-25T05:03:09;14.32;;;3.08;;
37091;SDS011;23005;51.998;4.502;2023-04-25T05:04:30;20.08;;;3.35;;
37091;SDS011;23005;51.998;4.502;2023-04-25T05:05:51;19.50;;;3.03;;
37091;SDS011;23005;51.998;4.502;2023-04-25T05:07:13;18.10;;;3.22;;
37091;SDS011;23005;51.998;4.502;2023-04-25T05:08:34;21.45;;;3.20;;
37091;SDS011;23005;51.998;4.502;2023-04-25T05:09:54;17.57;;;3.57;;
37091;SDS011;23005;51.998;4.502;2023-04-25T05:11:15;14.63;;;3.38;;
37091;SDS011;23005;51.998;4.502;2023-04-25T05:12:36;19.63;;;3.30;;
37091;SDS011;23005;51.998;4.502;2023-04-25T05:13:57;26.33;;;4.40;;
37091;SDS011;23005;51.998;4.502;2023-04-25T05:15:18;18.50;;;4.10;;
37091;SDS011;23005;51.998;4.502;2023-04-25T05:16:39;26.58;;;4.10;;
37091;SDS011;23005;51.998;4.502;2023-04-25T05:18:00;19.05;;;3.90;;
37091;SDS011;23005;51.998;4.502;2023-04-25T05:19:21;19.42;;;3.70;;
37091;SDS011;23005;51.998;4.502;2023-04-25T05:20:42;15.13;;;3.15;;
37091;SDS011;23005;51.998;4.502;2023-04-25T05:22:03;16.08;;;3.60;;
37091;SDS011;23005;51.998;4.502;2023-04-25T05:23:25;22.30;;;5.05;;
37091;SDS011;23005;51.998;4.502;2023-04-25T05:24:46;18.63;;;3.85;;
37091;SDS011;23005;51.998;4.502;2023-04-25T05:26:07;20.38;;;3.92;;
37091;SDS011;23005;51.998;4.502;2023-04-25T05:27:28;23.40;;;4.20;;
37091;SDS011;23005;51.998;4.502;2023-04-25T05:28:49;17.25;;;3.13;;
37091;SDS011;23005;51.998;4.502;2023-04-25T05:30:10;27.08;;;4.30;;
37091;SDS011;23005;51.998;4.502;2023-04-25T05:31:31;14.27;;;3.58;;
37091;SDS011;23005;51.998;4.502;2023-04-25T05:32:52;20.45;;;3.65;;
37091;SDS011;23005;51.998;4.502;2023-04-25T05:34:12;12.17;;;2.70;;
37091;SDS011;23005;51.998;4.502;2023-04-25T05:35:33;16.38;;;3.05;;
37091;SDS011;23005;51.998;4.502;2023-04-25T05:36:54;11.98;;;2.80;;
37091;SDS011;23005;51.998;4.502;2023-04-25T05:38:15;17.08;;;2.55;;
37091;SDS011;23005;51.998;4.502;2023-04-25T05:39:37;12.70;;;2.58;;
37091;SDS011;23005;51.998;4.502;2023-04-25T05:40:59;18.25;;;2.90;;
37091;SDS011;23005;51.998;4.502;2023-04-25T05:42:19;31.08;;;3.88;;
37091;SDS011;23005;51.998;4.502;2023-04-25T05:43:40;22.00;;;2.85;;
37091;SDS011;23005;51.998;4.502;2023-04-25T05:45:01;13.05;;;2.70;;
37091;SDS011;23005;51.998;4.502;2023-04-25T05:46:22;11.93;;;2.55;;
37091;SDS011;23005;51.998;4.502;2023-04-25T05:47:43;13.18;;;3.00;;
37091;SDS011;23005;51.998;4.502;2023-04-25T05:49:04;15.00;;;2.67;;
37091;SDS011;23005;51.998;4.502;2023-04-25T05:50:25;11.55;;;2.22;;
37091;SDS011;23005;51.998;4.502;2023-04-25T05:51:46;12.82;;;2.05;;
37091;SDS011;23005;51.998;4.502;2023-04-25T05:53:07;14.23;;;2.50;;
37091;SDS011;23005;51.998;4.502;2023-04-25T05:54:28;10.82;;;2.35;;
37091;SDS011;23005;51.998;4.502;2023-04-25T05:55:50;18.83;;;2.25;;
37091;SDS011;23005;51.998;4.502;2023-04-25T05:57:18;16.77;;;2.25;;
37091;SDS011;23005;51.998;4.502;2023-04-25T05:58:40;10.63;;;1.92;;
37091;SDS011;23005;51.998;4.502;2023-04-25T06:00:01;10.80;;;2.20;;
37091;SDS011;23005;51.998;4.502;2023-04-25T06:01:24;14.50;;;2.35;;
37091;SDS011;23005;51.998;4.502;2023-04-25T06:02:45;12.80;;;1.93;;
37091;SDS011;23005;51.998;4.502;2023-04-25T06:04:06;7.80;;;1.77;;
37091;SDS011;23005;51.998;4.502;2023-04-25T06:05:27;10.93;;;1.80;;
37091;SDS011;23005;51.998;4.502;2023-04-25T06:06:48;9.63;;;2.30;;
37091;SDS011;23005;51.998;4.502;2023-04-25T06:08:09;10.07;;;2.10;;
37091;SDS011;23005;51.998;4.502;2023-04-25T06:09:31;10.25;;;1.83;;
37091;SDS011;23005;51.998;4.502;2023-04-25T06:10:53;10.48;;;2.10;;
37091;SDS011;23005;51.998;4.502;2023-04-25T06:12:14;7.90;;;1.85;;
37091;SDS011;23005;51.998;4.502;2023-04-25T06:13:35;12.48;;;2.40;;
37091;SDS011;23005;51.998;4.502;2023-04-25T06:14:56;7.15;;;1.80;;
37091;SDS011;23005;51.998;4.502;2023-04-25T06:16:16;8.23;;;1.77;;
37091;SDS011;23005;51.998;4.502;2023-04-25T06:17:38;7.55;;;2.00;;
37091;SDS011;23005;51.998;4.502;2023-04-25T06:18:58;8.77;;;2.10;;
37091;SDS011;23005;51.998;4.502;2023-04-25T06:20:19;7.70;;;2.00;;
37091;SDS011;23005;51.998;4.502;2023-04-25T06:21:41;5.20;;;1.60;;
37091;SDS011;23005;51.998;4.502;2023-04-25T06:23:03;4.78;;;1.85;;
37091;SDS011;23005;51.998;4.502;2023-04-25T06:24:24;4.95;;;1.80;;
37091;SDS011;23005;51.998;4.502;2023-04-25T06:25:46;8.10;;;1.90;;
37091;SDS011;23005;51.998;4.502;2023-04-25T06:27:08;9.20;;;1.92;;
37091;SDS011;23005;51.998;4.502;2023-04-25T06:28:29;9.25;;;1.85;;
37091;SDS011;23005;51.998;4.502;2023-04-25T06:29:49;7.00;;;1.55;;
37091;SDS011;23005;51.998;4.502;2023-04-25T06:31:11;11.30;;;1.77;;
37091;SDS011;23005;51.998;4.502;2023-04-25T06:32:31;14.52;;;2.70;;
37091;SDS011;23005;51.998;4.502;2023-04-25T06:33:52;12.30;;;2.15;;
37091;SDS011;23005;51.998;4.502;2023-04-25T06:35:13;6.45;;;2.00;;
37091;SDS011;23005;51.998;4.502;2023-04-25T06:36:34;9.40;;;2.22;;
37091;SDS011;23005;51.998;4.502;2023-04-25T06:37:55;8.23;;;1.95;;
37091;SDS011;23005;51.998;4.502;2023-04-25T06:39:16;6.53;;;2.13;;
37091;SDS011;23005;51.998;4.502;2023-04-25T06:40:37;9.90;;;2.28;;
37091;SDS011;23005;51.998;4.502;2023-04-25T06:41:58;7.95;;;2.03;;
37091;SDS011;23005;51.998;4.502;2023-04-25T06:43:20;10.93;;;2.17;;
37091;SDS011;23005;51.998;4.502;2023-04-25T06:44:40;10.55;;;2.00;;
37091;SDS011;23005;51.998;4.502;2023-04-25T06:46:01;13.05;;;2.75;;
37091;SDS011;23005;51.998;4.502;2023-04-25T06:47:22;9.70;;;2.42;;
37091;SDS011;23005;51.998;4.502;2023-04-25T06:48:43;6.32;;;2.08;;
37091;SDS011;23005;51.998;4.502;2023-04-25T06:50:05;6.68;;;1.70;;
37091;SDS011;23005;51.998;4.502;2023-04-25T06:51:27;8.68;;;2.00;;
37091;SDS011;23005;51.998;4.502;2023-04-25T06:52:47;11.25;;;2.30;;
37091;SDS011;23005;51.998;4.502;2023-04-25T06:54:08;7.05;;;1.83;;
37091;SDS011;23005;51.998;4.502;2023-04-25T06:55:29;13.88;;;2.97;;
37091;SDS011;23005;51.998;4.502;2023-04-25T06:56:50;12.45;;;2.35;;
37091;SDS011;23005;51.998;4.502;2023-04-25T06:58:11;7.82;;;2.05;;
37091;SDS011;23005;51.998;4.502;2023-04-25T06:59:33;16.33;;;2.67;;
37091;SDS011;23005;51.998;4.502;2023-04-25T07:00:54;11.45;;;2.13;;
37091;SDS011;23005;51.998;4.502;2023-04-25T07:02:15;9.38;;;2.45;;
37091;SDS011;23005;51.998;4.502;2023-04-25T07:03:36;11.85;;;2.35;;
37091;SDS011;23005;51.998;4.502;2023-04-25T07:04:57;8.32;;;2.10;;
37091;SDS011;23005;51.998;4.502;2023-04-25T07:06:18;7.65;;;2.17;;
37091;SDS011;23005;51.998;4.502;2023-04-25T07:07:39;12.23;;;2.88;;
37091;SDS011;23005;51.998;4.502;2023-04-25T07:09:00;11.75;;;2.58;;
37091;SDS011;23005;51.998;4.502;2023-04-25T07:10:21;14.20;;;2.30;;
37091;SDS011;23005;51.998;4.502;2023-04-25T07:11:41;18.05;;;3.22;;
37091;SDS011;23005;51.998;4.502;2023-04-25T07:13:02;10.25;;;2.35;;
37091;SDS011;23005;51.998;4.502;2023-04-25T07:14:23;11.07;;;2.45;;
37091;SDS011;23005;51.998;4.502;2023-04-25T07:17:07;17.83;;;2.60;;
37091;SDS011;23005;51.998;4.502;2023-04-25T07:18:28;8.85;;;2.10;;
37091;SDS011;23005;51.998;4.502;2023-04-25T07:19:48;7.30;;;2.15;;
37091;SDS011;23005;51.998;4.502;2023-04-25T07:21:09;10.38;;;2.10;;
37091;SDS011;23005;51.998;4.502;2023-04-25T07:22:30;10.68;;;2.25;;
37091;SDS011;23005;51.998;4.502;2023-04-25T07:23:51;15.57;;;2.42;;
37091;SDS011;23005;51.998;4.502;2023-04-25T07:25:12;16.10;;;2.90;;
37091;SDS011;23005;51.998;4.502;2023-04-25T07:26:33;6.00;;;1.98;;
37091;SDS011;23005;51.998;4.502;2023-04-25T07:27:54;13.43;;;2.35;;
37091;SDS011;23005;51.998;4.502;2023-04-25T07:29:15;13.60;;;3.22;;
37091;SDS011;23005;51.998;4.502;2023-04-25T07:30:36;11.65;;;2.50;;
37091;SDS011;23005;51.998;4.502;2023-04-25T07:31:58;6.68;;;2.45;;
37091;SDS011;23005;51.998;4.502;2023-04-25T07:33:19;10.52;;;2.70;;
37091;SDS011;23005;51.998;4.502;2023-04-25T07:34:40;14.95;;;2.83;;
37091;SDS011;23005;51.998;4.502;2023-04-25T07:36:00;20.35;;;3.42;;
37091;SDS011;23005;51.998;4.502;2023-04-25T07:37:22;11.90;;;2.30;;
37091;SDS011;23005;51.998;4.502;2023-04-25T07:38:42;19.35;;;3.58;;
37091;SDS011;23005;51.998;4.502;2023-04-25T07:40:03;15.43;;;3.17;;
37091;SDS011;23005;51.998;4.502;2023-04-25T07:41:25;20.38;;;3.08;;
37091;SDS011;23005;51.998;4.502;2023-04-25T07:42:46;15.95;;;2.35;;
37091;SDS011;23005;51.998;4.502;2023-04-25T07:44:07;13.70;;;2.58;;
37091;SDS011;23005;51.998;4.502;2023-04-25T07:45:28;15.20;;;2.97;;
37091;SDS011;23005;51.998;4.502;2023-04-25T07:46:49;17.50;;;3.15;;
37091;SDS011;23005;51.998;4.502;2023-04-25T07:48:11;12.95;;;1.90;;
37091;SDS011;23005;51.998;4.502;2023-04-25T07:49:36;14.07;;;2.83;;
37091;SDS011;23005;51.998;4.502;2023-04-25T07:50:57;17.00;;;2.35;;
37091;SDS011;23005;51.998;4.502;2023-04-25T07:52:18;13.95;;;2.30;;
37091;SDS011;23005;51.998;4.502;2023-04-25T07:53:38;18.98;;;2.28;;
37091;SDS011;23005;51.998;4.502;2023-04-25T07:54:59;12.13;;;1.75;;
37091;SDS011;23005;51.998;4.502;2023-04-25T07:56:20;12.35;;;2.28;;
37091;SDS011;23005;51.998;4.502;2023-04-25T07:57:41;14.32;;;2.20;;
37091;SDS011;23005;51.998;4.502;2023-04-25T07:59:02;11.05;;;2.20;;
37091;SDS011;23005;51.998;4.502;2023-04-25T08:00:23;11.73;;;2.03;;
37091;SDS011;23005;51.998;4.502;2023-04-25T08:01:44;14.43;;;1.90;;
37091;SDS011;23005;51.998;4.502;2023-04-25T08:03:05;16.58;;;2.40;;
37091;SDS011;23005;51.998;4.502;2023-04-25T08:05:49;15.73;;;2.03;;
37091;SDS011;23005;51.998;4.502;2023-04-25T08:07:10;13.80;;;2.22;;
37091;SDS011;23005;51.998;4.502;2023-04-25T08:08:31;15.75;;;1.90;;
37091;SDS011;23005;51.998;4.502;2023-04-25T08:09:52;9.95;;;1.67;;
37091;SDS011;23005;51.998;4.502;2023-04-25T08:12:34;16.75;;;2.53;;
37091;SDS011;23005;51.998;4.502;2023-04-25T08:13:55;21.00;;;2.55;;
37091;SDS011;23005;51.998;4.502;2023-04-25T08:15:16;13.50;;;2.63;;